This is the latest recevied weather packets stored in our database for station/object HK4LRM-13. If no packets are shown the sender has not sent any weather packets the latest 10 day(s).
| Time | Temp. | Humidity | Pressure | Rain* | Wind** | Luminosity | Snow |
|---|---|---|---|---|---|---|---|
| 1777676725 | 26.67° C | 57% | 1011 hPa | 0 mm | - | - | - |
| 1777676185 | 26.67° C | 57% | 1011 hPa | 0 mm | - | - | - |
| 1777675644 | 25° C | 65% | 1011 hPa | 0 mm | - | - | - |
| 1777675104 | 25° C | 65% | 1011 hPa | 0 mm | - | - | - |
| 1777674562 | 24.44° C | 71% | 1009 hPa | 0 mm | - | - | - |
| 1777674022 | 24.44° C | 71% | 1009 hPa | 0 mm | - | - | - |
| 1777673480 | 24.44° C | 71% | 1009 hPa | 0 mm | - | - | - |
| 1777672939 | 24.44° C | 70% | 1009 hPa | 0 mm | - | - | - |
| 1777672398 | 24.44° C | 68% | 1009 hPa | 0 mm | - | - | - |
| 1777671855 | 25° C | 65% | 1008 hPa | 0 mm | - | - | - |
| 1777671314 | 25° C | 65% | 1008 hPa | 0 mm | - | - | - |
| 1777670772 | 25.56° C | 64% | 1008 hPa | 0 mm | - | - | - |
| 1777670231 | 25.56° C | 63% | 1008 hPa | 0 mm | - | - | - |
| 1777669150 | 25.56° C | 62% | 1008 hPa | 0 mm | - | - | - |
| 1777668609 | 25.56° C | 62% | 1008 hPa | 0 mm | - | - | - |
| 1777668068 | 26.11° C | 62% | 1008 hPa | 0 mm | - | - | - |
| 1777667528 | 26.67° C | 61% | 1008 hPa | 0 mm | - | - | - |
| 1777666987 | 26.67° C | 61% | 1008 hPa | 0 mm | - | - | - |
| 1777666447 | 25° C | 63% | 1008 hPa | 0 mm | - | - | - |
| 1777665906 | 25° C | 63% | 1008 hPa | 0 mm | - | - | - |
| 1777665364 | 25° C | 66% | 1008 hPa | 0 mm | - | - | - |
| 1777664821 | 25° C | 64% | 1008 hPa | 0 mm | - | - | - |
| 1777664281 | 25° C | 62% | 1008 hPa | 0 mm | - | - | - |
| 1777663740 | 25° C | 62% | 1008 hPa | 0 mm | - | - | - |
| 1777663198 | 25° C | 61% | 1008 hPa | 0 mm | - | - | - |
* Rain latest hour (hover to see other rain measurements)
** Current wind speed in m/s (hover to see current wind gust speed)